createdAt,value
2023-02-11T00:00:51.586Z,11.35
2023-02-11T00:03:21.829Z,9.40
2023-02-11T00:06:00.738Z,18.15
2023-02-11T00:08:30.857Z,11.70
2023-02-11T00:11:03.399Z,14.75
2023-02-11T00:13:33.362Z,8.48
2023-02-11T00:16:03.310Z,10.23
2023-02-11T00:18:33.727Z,11.18
2023-02-11T00:21:03.643Z,17.30
2023-02-11T00:23:34.274Z,10.00
2023-02-11T00:26:07.562Z,9.80
2023-02-11T00:28:37.519Z,12.85
2023-02-11T00:31:08.295Z,9.45
2023-02-11T00:33:40.406Z,14.35
2023-02-11T00:36:13.756Z,11.20
2023-02-11T00:38:43.704Z,11.80
2023-02-11T00:41:17.164Z,10.02
2023-02-11T00:43:47.320Z,16.02
2023-02-11T00:46:17.366Z,16.35
2023-02-11T00:48:47.943Z,14.13
2023-02-11T00:51:18.074Z,13.48
2023-02-11T00:53:48.010Z,13.43
2023-02-11T00:56:20.573Z,12.35
2023-02-11T00:58:50.538Z,16.48
2023-02-11T01:01:20.797Z,10.68
2023-02-11T01:03:50.783Z,15.68
2023-02-11T01:06:20.892Z,10.13
2023-02-11T01:08:50.866Z,11.57
2023-02-11T01:11:24.679Z,8.25
2023-02-11T01:13:54.692Z,8.93
2023-02-11T01:16:25.901Z,8.48
2023-02-11T01:18:56.538Z,11.90
2023-02-11T01:21:26.989Z,9.27
2023-02-11T01:23:56.983Z,7.72
2023-02-11T01:26:29.575Z,8.18
2023-02-11T01:29:02.095Z,8.57
2023-02-11T01:31:34.046Z,8.15
2023-02-11T01:34:04.310Z,7.90
2023-02-11T01:36:34.240Z,7.70
2023-02-11T01:39:04.264Z,6.28
2023-02-11T01:41:36.933Z,12.48
2023-02-11T01:44:25.977Z,9.10
2023-02-11T01:46:56.409Z,18.30
2023-02-11T01:49:29.706Z,8.75
2023-02-11T01:52:02.648Z,11.93
2023-02-11T01:54:48.489Z,7.72
2023-02-11T01:57:25.756Z,8.75
2023-02-11T02:00:02.959Z,15.52
2023-02-11T02:02:48.627Z,10.05
2023-02-11T02:05:24.935Z,12.45
2023-02-11T02:08:00.133Z,13.30
2023-02-11T02:10:31.376Z,13.20
2023-02-11T02:13:04.222Z,13.25
2023-02-11T02:15:36.309Z,15.65
2023-02-11T02:18:18.615Z,9.00
2023-02-11T02:21:27.113Z,6.57
2023-02-11T02:24:27.254Z,8.27
2023-02-11T02:27:26.260Z,9.88
2023-02-11T02:30:27.626Z,8.02
2023-02-11T02:33:21.823Z,10.95
2023-02-11T02:35:58.547Z,11.05
2023-02-11T02:38:31.678Z,17.08
2023-02-11T02:41:06.068Z,8.93
2023-02-11T02:43:36.968Z,9.70
2023-02-11T02:46:14.856Z,8.70
2023-02-11T02:48:49.947Z,5.72
2023-02-11T02:51:38.555Z,9.23
2023-02-11T02:54:36.021Z,9.88
2023-02-11T02:57:19.892Z,9.32
2023-02-11T02:59:58.950Z,11.73
2023-02-11T03:02:33.215Z,9.93
2023-02-11T03:05:09.638Z,12.93
2023-02-11T03:07:44.617Z,7.20
2023-02-11T03:10:17.258Z,6.10
2023-02-11T03:12:48.196Z,13.50
2023-02-11T03:15:19.630Z,8.40
2023-02-11T03:17:51.774Z,7.93
2023-02-11T03:20:26.132Z,8.45
2023-02-11T03:22:59.161Z,7.47
2023-02-11T03:25:33.208Z,6.07
2023-02-11T03:28:06.800Z,11.63
2023-02-11T03:30:41.634Z,5.65
2023-02-11T03:33:17.144Z,11.23
2023-02-11T03:35:54.274Z,7.78
2023-02-11T03:38:25.542Z,6.50
2023-02-11T03:40:57.571Z,6.25
2023-02-11T03:43:31.015Z,8.45
2023-02-11T03:46:01.721Z,5.93
2023-02-11T03:48:34.798Z,5.30
2023-02-11T03:51:10.645Z,6.70
2023-02-11T03:53:42.102Z,7.75
2023-02-11T03:56:15.066Z,4.40
2023-02-11T03:58:47.309Z,6.93
2023-02-11T04:01:17.484Z,6.00
2023-02-11T04:03:47.508Z,8.35
2023-02-11T04:06:20.110Z,6.97
2023-02-11T04:08:50.077Z,5.85
2023-02-11T04:11:20.047Z,6.70
2023-02-11T04:13:50.056Z,7.75
2023-02-11T04:16:20.020Z,7.25
2023-02-11T04:18:49.957Z,7.35
2023-02-11T04:21:22.540Z,10.23
2023-02-11T04:23:52.532Z,8.30
2023-02-11T04:26:22.476Z,9.60
2023-02-11T04:28:52.516Z,7.03
2023-02-11T04:31:22.598Z,7.82
2023-02-11T04:33:52.665Z,10.68
2023-02-11T04:36:25.236Z,7.10
2023-02-11T04:38:55.202Z,6.82
2023-02-11T04:41:25.148Z,8.27
2023-02-11T04:43:55.104Z,5.97
2023-02-11T04:46:25.253Z,7.70
2023-02-11T04:48:55.237Z,7.47
2023-02-11T04:51:27.794Z,10.93
2023-02-11T04:53:57.768Z,10.93
2023-02-11T04:56:27.689Z,8.38
2023-02-11T04:58:57.625Z,10.82
2023-02-11T05:01:27.618Z,7.18
2023-02-11T05:03:57.639Z,4.85
2023-02-11T05:06:30.224Z,4.65
2023-02-11T05:09:00.224Z,9.95
2023-02-11T05:11:30.155Z,8.98
2023-02-11T05:14:00.131Z,8.05
2023-02-11T05:16:31.000Z,10.98
2023-02-11T05:19:00.981Z,11.48
2023-02-11T05:21:33.567Z,5.88
2023-02-11T05:24:03.596Z,8.85
2023-02-11T05:26:33.568Z,6.28
2023-02-11T05:29:03.514Z,12.23
2023-02-11T05:31:33.475Z,12.60
2023-02-11T05:34:04.186Z,13.80
2023-02-11T05:36:36.778Z,10.13
2023-02-11T05:39:06.750Z,7.47
2023-02-11T05:41:36.698Z,4.28
2023-02-11T05:44:06.822Z,12.07
2023-02-11T05:46:36.818Z,9.27
2023-02-11T05:49:07.038Z,8.88
2023-02-11T05:51:39.604Z,10.02
2023-02-11T05:54:09.687Z,7.40
2023-02-11T05:56:39.623Z,6.85
2023-02-11T05:59:09.551Z,7.03
2023-02-11T06:01:39.557Z,10.55
2023-02-11T06:04:09.582Z,6.72
2023-02-11T06:06:42.230Z,5.72
2023-02-11T06:09:13.039Z,7.40
2023-02-11T06:11:43.006Z,11.70
2023-02-11T06:14:13.014Z,7.07
2023-02-11T06:16:42.958Z,7.20
2023-02-11T06:19:12.955Z,6.50
2023-02-11T06:21:45.496Z,10.25
2023-02-11T06:24:19.281Z,12.98
2023-02-11T06:26:54.554Z,11.38
2023-02-11T06:29:24.500Z,13.27
2023-02-11T06:31:54.627Z,7.57
2023-02-11T06:34:24.629Z,12.13
2023-02-11T06:36:57.163Z,8.05
2023-02-11T06:39:27.080Z,7.18
2023-02-11T06:41:57.084Z,8.88
2023-02-11T06:44:27.138Z,11.55
2023-02-11T06:46:57.089Z,14.02
2023-02-11T06:49:27.028Z,12.25
2023-02-11T06:51:59.776Z,11.10
2023-02-11T06:54:29.756Z,12.35
2023-02-11T06:56:59.745Z,11.27
2023-02-11T06:59:29.696Z,11.48
2023-02-11T07:01:59.702Z,11.52
2023-02-11T07:04:29.673Z,13.90
2023-02-11T07:07:02.212Z,8.40
2023-02-11T07:09:32.247Z,9.68
2023-02-11T07:12:02.248Z,10.80
2023-02-11T07:14:32.323Z,15.02
2023-02-11T07:17:04.146Z,12.55
2023-02-11T07:19:34.237Z,10.70
2023-02-11T07:22:06.823Z,12.80
2023-02-11T07:24:36.780Z,12.05
2023-02-11T07:27:06.790Z,11.30
2023-02-11T07:29:36.764Z,9.13
2023-02-11T07:32:06.876Z,10.75
2023-02-11T07:34:37.013Z,10.48
2023-02-11T07:37:09.594Z,17.38
2023-02-11T07:39:39.562Z,15.88
2023-02-11T07:42:09.663Z,16.38
2023-02-11T07:44:39.850Z,16.10
2023-02-11T07:47:09.772Z,10.38
2023-02-11T07:49:39.725Z,9.95
2023-02-11T07:52:12.287Z,13.50
2023-02-11T07:54:42.238Z,11.57
2023-02-11T07:57:12.209Z,20.38
2023-02-11T07:59:42.238Z,16.08
2023-02-11T08:02:12.882Z,17.17
2023-02-11T08:04:43.089Z,18.52
2023-02-11T08:07:18.423Z,8.57
2023-02-11T08:09:49.113Z,12.68
2023-02-11T08:12:19.133Z,11.30
2023-02-11T08:14:49.142Z,13.85
2023-02-11T08:17:19.066Z,15.77
2023-02-11T08:19:48.993Z,15.77
2023-02-11T08:22:21.573Z,18.15
2023-02-11T08:24:52.520Z,21.42
2023-02-11T08:27:22.484Z,14.52
2023-02-11T08:29:52.734Z,13.00
2023-02-11T08:32:25.570Z,19.45
2023-02-11T08:34:55.644Z,11.82
2023-02-11T08:37:28.194Z,16.23
2023-02-11T08:39:58.139Z,11.20
2023-02-11T08:42:28.118Z,13.75
2023-02-11T08:44:58.147Z,16.23
2023-02-11T08:47:28.107Z,14.63
2023-02-11T08:49:58.063Z,11.50
2023-02-11T08:52:30.679Z,6.35
2023-02-11T08:55:00.890Z,13.27
2023-02-11T08:57:31.105Z,11.05
2023-02-11T09:00:01.093Z,12.63
2023-02-11T09:02:31.011Z,10.15
2023-02-11T09:05:01.078Z,15.77
2023-02-11T09:07:33.984Z,16.13
2023-02-11T09:10:03.923Z,10.77
2023-02-11T09:12:33.912Z,15.43
2023-02-11T09:15:03.904Z,14.43
2023-02-11T09:17:33.895Z,14.07
2023-02-11T09:20:04.160Z,14.85
2023-02-11T09:22:36.745Z,16.42
2023-02-11T09:25:06.887Z,8.65
2023-02-11T09:27:36.896Z,13.27
2023-02-11T09:30:07.841Z,10.05
2023-02-11T09:32:37.821Z,10.95
2023-02-11T09:35:08.425Z,13.18
2023-02-11T09:37:41.017Z,12.77
2023-02-11T09:40:12.523Z,14.95
2023-02-11T09:42:47.765Z,12.30
2023-02-11T09:45:21.635Z,15.63
2023-02-11T09:47:54.372Z,11.15
2023-02-11T09:50:27.302Z,14.73
2023-02-11T09:53:02.582Z,14.05
2023-02-11T09:55:37.602Z,13.95
2023-02-11T09:58:14.436Z,13.38
2023-02-11T10:00:48.629Z,8.98
2023-02-11T10:03:49.895Z,11.85
2023-02-11T10:06:36.051Z,13.80
2023-02-11T10:09:18.564Z,11.45
2023-02-11T10:11:55.593Z,12.73
2023-02-11T10:14:35.806Z,10.48
2023-02-11T10:17:13.089Z,13.55
2023-02-11T10:19:53.254Z,11.68
2023-02-11T10:22:26.136Z,9.27
2023-02-11T10:25:00.640Z,11.52
2023-02-11T10:27:33.924Z,7.30
2023-02-11T10:30:05.898Z,7.55
2023-02-11T10:32:41.480Z,13.15
2023-02-11T10:35:18.154Z,9.60
2023-02-11T10:37:48.379Z,10.27
2023-02-11T10:40:23.086Z,11.85
2023-02-11T10:42:55.749Z,15.15
2023-02-11T10:45:30.340Z,8.00
2023-02-11T10:48:00.336Z,15.73
2023-02-11T10:50:33.510Z,9.75
2023-02-11T10:53:16.471Z,9.13
2023-02-11T10:55:57.310Z,12.27
2023-02-11T10:58:29.031Z,11.82
2023-02-11T11:01:00.342Z,12.57
2023-02-11T11:03:32.625Z,16.25
2023-02-11T11:06:04.388Z,12.60
2023-02-11T11:08:43.416Z,9.40
2023-02-11T11:11:17.061Z,9.25
2023-02-11T11:13:59.200Z,18.25
2023-02-11T11:16:30.813Z,10.52
2023-02-11T11:19:22.399Z,8.02
2023-02-11T11:21:53.482Z,11.63
2023-02-11T11:24:27.644Z,13.45
2023-02-11T11:27:03.584Z,12.73
2023-02-11T11:29:38.498Z,14.95
2023-02-11T11:32:15.340Z,9.45
2023-02-11T11:34:47.287Z,8.35
2023-02-11T11:37:23.407Z,12.82
2023-02-11T11:40:00.210Z,10.65
2023-02-11T11:42:34.483Z,11.65
2023-02-11T11:45:06.336Z,15.15
2023-02-11T11:47:39.422Z,11.65
2023-02-11T11:50:21.356Z,12.00
2023-02-11T11:52:56.951Z,9.63
2023-02-11T11:55:29.489Z,12.43
2023-02-11T11:58:02.277Z,11.48
2023-02-11T12:00:38.677Z,14.60
2023-02-11T12:03:28.474Z,12.20
2023-02-11T12:06:10.087Z,13.70
2023-02-11T12:08:47.417Z,12.45
2023-02-11T12:11:22.683Z,10.85
2023-02-11T12:14:03.963Z,18.02
2023-02-11T12:16:40.853Z,16.83
2023-02-11T12:19:26.897Z,16.33
2023-02-11T12:22:04.337Z,15.50
2023-02-11T12:24:48.261Z,14.57
2023-02-11T12:27:21.679Z,11.57
2023-02-11T12:30:05.178Z,9.68
2023-02-11T12:32:41.491Z,9.10
2023-02-11T12:35:24.493Z,12.95
2023-02-11T12:38:16.205Z,13.02
2023-02-11T12:40:49.028Z,6.95
2023-02-11T12:43:21.806Z,13.38
2023-02-11T12:46:24.573Z,11.50
2023-02-11T12:49:28.804Z,8.82
2023-02-11T12:52:09.938Z,14.63
2023-02-11T12:54:42.778Z,14.02
2023-02-11T12:57:20.694Z,14.57
2023-02-11T12:59:57.435Z,11.70
2023-02-11T13:02:34.831Z,11.90
2023-02-11T13:05:14.486Z,15.35
2023-02-11T13:07:48.476Z,12.38
2023-02-11T13:10:29.266Z,11.65
2023-02-11T13:13:12.780Z,9.63
2023-02-11T13:15:43.521Z,12.25
2023-02-11T13:18:25.188Z,10.75
2023-02-11T13:21:01.266Z,12.70
2023-02-11T13:23:44.131Z,11.65
2023-02-11T13:26:18.553Z,8.40
2023-02-11T13:28:51.763Z,13.45
2023-02-11T13:31:26.971Z,10.32
2023-02-11T13:33:57.100Z,8.75
2023-02-11T13:36:33.002Z,8.57
2023-02-11T13:39:05.325Z,10.68
2023-02-11T13:41:40.529Z,14.63
2023-02-11T13:44:28.253Z,13.10
2023-02-11T13:47:01.719Z,13.10
2023-02-11T13:49:40.929Z,18.00
2023-02-11T13:52:26.378Z,15.35
2023-02-11T13:54:59.488Z,7.18
2023-02-11T13:57:40.715Z,12.48
2023-02-11T14:00:47.501Z,12.93
2023-02-11T14:03:42.176Z,10.32
2023-02-11T14:06:30.212Z,15.07
2023-02-11T14:09:14.369Z,12.23
2023-02-11T14:11:50.497Z,10.18
2023-02-11T14:14:24.410Z,9.88
2023-02-11T14:17:31.635Z,12.98
2023-02-11T14:20:02.363Z,10.50
2023-02-11T14:22:34.600Z,9.68
2023-02-11T14:25:08.490Z,14.43
2023-02-11T14:27:42.520Z,12.73
2023-02-11T14:30:57.039Z,12.70
2023-02-11T14:33:58.023Z,16.38
2023-02-11T14:37:00.517Z,14.43
2023-02-11T14:39:44.045Z,10.63
2023-02-11T14:42:22.669Z,15.48
2023-02-11T14:44:53.535Z,21.10
2023-02-11T14:47:27.093Z,14.20
2023-02-11T14:49:57.246Z,14.98
2023-02-11T14:52:31.292Z,17.88
2023-02-11T14:55:17.712Z,21.75
2023-02-11T14:57:56.071Z,15.40
2023-02-11T15:00:26.458Z,15.80
2023-02-11T15:02:57.437Z,11.68
2023-02-11T15:05:29.092Z,10.30
2023-02-11T15:08:01.532Z,10.15
2023-02-11T15:10:34.263Z,12.27
2023-02-11T15:13:08.011Z,7.43
2023-02-11T15:15:38.338Z,18.05
2023-02-11T15:18:09.866Z,15.50
2023-02-11T15:20:39.856Z,17.65
2023-02-11T15:23:11.998Z,15.85
2023-02-11T15:25:51.672Z,13.50
2023-02-11T15:28:29.026Z,15.27
2023-02-11T15:31:07.104Z,14.32
2023-02-11T15:33:37.332Z,20.15
2023-02-11T15:36:08.543Z,11.52
2023-02-11T15:38:38.566Z,16.60
2023-02-11T15:41:09.514Z,16.98
2023-02-11T15:43:50.859Z,14.13
2023-02-11T15:46:22.813Z,13.75
2023-02-11T15:48:55.004Z,16.15
2023-02-11T15:51:28.796Z,27.52
2023-02-11T15:53:59.952Z,21.23
2023-02-11T15:56:34.503Z,26.38
2023-02-11T15:59:22.687Z,16.70
2023-02-11T16:01:52.987Z,14.20
2023-02-11T16:04:25.873Z,15.15
2023-02-11T16:06:56.779Z,31.50
2023-02-11T16:09:30.396Z,18.70
2023-02-11T16:12:03.187Z,23.42
2023-02-11T16:14:40.045Z,18.33
2023-02-11T16:17:12.024Z,19.55
2023-02-11T16:19:47.582Z,17.80
2023-02-11T16:22:20.196Z,15.85
2023-02-11T16:24:51.154Z,19.02
2023-02-11T16:27:24.782Z,12.68
2023-02-11T16:29:57.497Z,11.95
2023-02-11T16:32:29.116Z,8.60
2023-02-11T16:35:01.059Z,11.18
2023-02-11T16:37:31.892Z,5.55
2023-02-11T16:40:01.911Z,6.50
2023-02-11T16:42:32.119Z,9.02
2023-02-11T16:45:04.750Z,5.57
2023-02-11T16:47:35.202Z,11.07
2023-02-11T16:50:05.893Z,14.15
2023-02-11T16:52:36.205Z,9.63
2023-02-11T16:55:06.803Z,32.97
2023-02-11T16:57:36.735Z,13.45
2023-02-11T17:00:11.286Z,11.18
2023-02-11T17:02:41.406Z,17.65
2023-02-11T17:05:19.413Z,17.70
2023-02-11T17:07:49.409Z,26.75
2023-02-11T17:10:21.235Z,14.95
2023-02-11T17:12:52.810Z,13.20
2023-02-11T17:15:25.386Z,8.75
2023-02-11T17:17:55.260Z,8.88
2023-02-11T17:20:25.690Z,16.52
2023-02-11T17:22:55.863Z,12.85
2023-02-11T17:25:26.330Z,13.75
2023-02-11T17:27:56.704Z,17.88
2023-02-11T17:30:29.551Z,21.80
2023-02-11T17:32:59.468Z,33.17
2023-02-11T17:35:30.351Z,46.63
2023-02-11T17:38:01.684Z,7.43
2023-02-11T17:40:32.361Z,7.82
2023-02-11T17:43:02.534Z,25.08
2023-02-11T17:45:35.331Z,50.47
2023-02-11T17:48:05.529Z,26.08
2023-02-11T17:50:38.937Z,16.20
2023-02-11T17:53:08.886Z,26.10
2023-02-11T17:55:40.781Z,17.73
2023-02-11T17:58:10.934Z,17.55
2023-02-11T18:00:43.550Z,13.20
2023-02-11T18:03:13.680Z,13.60
2023-02-11T18:05:43.836Z,13.55
2023-02-11T18:08:13.989Z,10.00
2023-02-11T18:10:45.128Z,10.20
2023-02-11T18:13:15.127Z,10.32
2023-02-11T18:15:47.867Z,8.80
2023-02-11T18:18:18.191Z,9.23
2023-02-11T18:20:48.289Z,5.85
2023-02-11T18:23:18.449Z,4.65
2023-02-11T18:25:48.436Z,6.50
2023-02-11T18:28:18.488Z,7.43
2023-02-11T18:30:51.416Z,8.52
2023-02-11T18:33:21.577Z,5.78
2023-02-11T18:35:52.026Z,8.15
2023-02-11T18:38:22.410Z,8.70
2023-02-11T18:40:52.942Z,7.72
2023-02-11T18:43:23.471Z,8.13
2023-02-11T18:45:56.138Z,5.35
2023-02-11T18:48:27.137Z,5.90
2023-02-11T18:50:57.951Z,9.57
2023-02-11T18:53:28.035Z,6.43
2023-02-11T18:55:57.956Z,4.05
2023-02-11T18:58:28.026Z,5.18
2023-02-11T19:01:00.622Z,6.97
2023-02-11T19:03:30.626Z,8.57
2023-02-11T19:06:00.752Z,6.38
2023-02-11T19:08:31.044Z,7.63
2023-02-11T19:11:01.175Z,4.22
2023-02-11T19:13:32.291Z,5.85
2023-02-11T19:16:11.167Z,6.10
2023-02-11T19:18:41.679Z,4.25
2023-02-11T19:21:12.670Z,4.50
2023-02-11T19:23:42.847Z,4.60
2023-02-11T19:26:12.817Z,4.43
2023-02-11T19:28:42.949Z,4.30
2023-02-11T19:31:15.799Z,6.03
2023-02-11T19:33:45.800Z,4.70
2023-02-11T19:36:17.285Z,6.10
2023-02-11T19:38:47.939Z,6.97
2023-02-11T19:41:22.341Z,4.07
2023-02-11T19:43:53.541Z,4.07
2023-02-11T19:46:26.844Z,3.45
2023-02-11T19:48:57.541Z,6.05
2023-02-11T19:51:27.654Z,5.43
2023-02-11T19:53:58.348Z,5.10
2023-02-11T19:56:28.869Z,4.10
2023-02-11T19:58:59.325Z,5.30
2023-02-11T20:01:32.173Z,5.70
2023-02-11T20:04:02.170Z,7.25
2023-02-11T20:06:33.682Z,6.45
2023-02-11T20:09:05.597Z,6.60
2023-02-11T20:11:36.134Z,7.60
2023-02-11T20:14:06.847Z,5.57
2023-02-11T20:16:48.015Z,5.47
2023-02-11T20:19:20.652Z,11.57
2023-02-11T20:21:52.221Z,7.53
2023-02-11T20:24:23.032Z,5.82
2023-02-11T20:26:55.897Z,5.65
2023-02-11T20:29:26.600Z,6.22
2023-02-11T20:31:59.313Z,5.05
2023-02-11T20:34:29.619Z,4.53
2023-02-11T20:36:59.731Z,3.63
2023-02-11T20:39:29.754Z,4.22
2023-02-11T20:41:59.724Z,3.78
2023-02-11T20:44:30.031Z,7.03
2023-02-11T20:47:02.604Z,3.95
2023-02-11T20:49:32.955Z,4.07
2023-02-11T20:52:02.993Z,3.28
2023-02-11T20:54:32.988Z,2.42
2023-02-11T20:57:03.105Z,3.17
2023-02-11T20:59:33.622Z,3.80
2023-02-11T21:02:06.368Z,3.58
2023-02-11T21:04:36.419Z,5.97
2023-02-11T21:07:06.373Z,4.45
2023-02-11T21:09:37.043Z,5.00
2023-02-11T21:12:08.339Z,5.75
2023-02-11T21:14:38.386Z,5.60
2023-02-11T21:17:13.115Z,3.78
2023-02-11T21:19:43.753Z,8.68
2023-02-11T21:22:13.794Z,4.50
2023-02-11T21:24:43.825Z,6.82
2023-02-11T21:27:13.762Z,5.97
2023-02-11T21:29:53.788Z,9.65
2023-02-11T21:32:27.308Z,4.85
2023-02-11T21:34:57.325Z,21.92
2023-02-11T21:37:27.545Z,7.90
2023-02-11T21:39:57.487Z,7.93
2023-02-11T21:42:27.517Z,9.02
2023-02-11T21:44:57.437Z,9.98
2023-02-11T21:47:29.996Z,5.65
2023-02-11T21:49:59.894Z,5.90
2023-02-11T21:52:29.831Z,5.28
2023-02-11T21:54:59.754Z,5.70
2023-02-11T21:57:29.764Z,4.18
2023-02-11T21:59:59.705Z,4.45
2023-02-11T22:02:32.254Z,4.32
2023-02-11T22:05:02.435Z,4.47
2023-02-11T22:07:32.455Z,5.72
2023-02-11T22:10:02.427Z,4.80
2023-02-11T22:12:32.441Z,3.88
2023-02-11T22:15:02.477Z,6.18
2023-02-11T22:17:36.096Z,6.82
2023-02-11T22:20:06.767Z,5.47
2023-02-11T22:22:36.734Z,6.60
2023-02-11T22:25:06.871Z,7.18
2023-02-11T22:27:36.812Z,5.32
2023-02-11T22:30:07.685Z,3.47
2023-02-11T22:32:40.216Z,3.55
2023-02-11T22:35:10.485Z,3.80
2023-02-11T22:37:40.478Z,4.78
2023-02-11T22:40:11.770Z,3.30
2023-02-11T22:42:41.689Z,12.48
2023-02-11T22:45:12.486Z,5.45
2023-02-11T22:47:45.079Z,5.45
2023-02-11T22:50:15.227Z,13.43
2023-02-11T22:52:45.185Z,6.78
2023-02-11T22:55:15.466Z,5.35
2023-02-11T22:57:45.527Z,7.75
2023-02-11T23:00:17.216Z,7.88
2023-02-11T23:02:50.787Z,7.93
2023-02-11T23:05:20.721Z,4.47
2023-02-11T23:07:50.653Z,6.07
2023-02-11T23:10:20.958Z,3.70
2023-02-11T23:12:50.885Z,6.20
2023-02-11T23:15:21.105Z,6.38
2023-02-11T23:17:53.690Z,5.15
2023-02-11T23:20:23.670Z,3.10
2023-02-11T23:22:53.659Z,3.47
2023-02-11T23:25:23.576Z,15.73
2023-02-11T23:27:53.619Z,3.97
2023-02-11T23:30:24.464Z,11.13
2023-02-11T23:32:57.386Z,4.38
2023-02-11T23:35:27.361Z,4.53
2023-02-11T23:37:57.491Z,3.17
2023-02-11T23:40:27.425Z,6.22
2023-02-11T23:42:57.359Z,4.43
2023-02-11T23:45:27.329Z,3.90
2023-02-11T23:47:59.919Z,3.65
2023-02-11T23:50:30.422Z,3.95
2023-02-11T23:53:00.377Z,3.88
2023-02-11T23:55:30.522Z,3.35
2023-02-11T23:58:00.472Z,3.75
